Latest Weather Observations for Cape Sorell

IDT60801

Issued at 8:21 am EDT Monday 6 February 2023 (issued every 10 minutes, with the page automatically refreshed every 10 minutes)

About weather observations | Map of weather stations | Latest weather observations for TAS | Other Formats
Station Details ID: 097000 Name: CAPE SORELL Lat: -42.20 Lon: 145.17 Height: 19.3 m
Data from the previous 72 hours. | See also: Recent months at Cape Sorell
Date/Time
EDT
Temp
°C
App
Temp
°C
Dew
Point
°C
Rel
Hum
%
Delta-T
°C
Wind Press
QNH
hPa
Press
MSL
hPa
Rain since
9am
mm
Dir  Spd
km/h
Gust
km/h
Spd
kts
Gust
kts
06/08:00am 14.4 12.2 13.4 94 0.6 W 17 24 9 13 1016.2 1016.1 0.6
06/07:30am 14.4 11.6 13.3 93 0.6 W 20 28 11 15 1016.2 1016.1 0.4
06/07:00am 14.2 11.3 12.9 92 0.7 W 20 30 11 16 1016.0 1015.9 0.4
06/06:30am 14.2 10.6 13.1 93 0.6 WSW 24 30 13 16 1015.6 1015.6 0.4
06/06:00am 14.1 12.2 13.1 94 0.6 W 15 20 8 11 1015.3 1015.3 0.4
06/05:30am 14.0 12.0 12.7 92 0.7 W 15 20 8 11 1015.3 1015.3 0.2
06/05:00am 13.9 11.1 12.5 91 0.8 W 19 26 10 14 1015.1 1015.1 0.2
06/04:30am 14.0 12.3 12.6 91 0.8 WNW 13 19 7 10 1015.2 1015.2 0.0
06/04:00am 14.1 12.4 12.3 89 1.0 NW 13 20 7 11 1015.3 1015.3 0.0
06/03:30am 14.6 11.4 11.9 84 1.5 WNW 20 28 11 15 1015.2 1015.2 0.0
06/03:00am 14.8 12.7 11.2 79 1.9 NW 13 20 7 11 1015.4 1015.4 0.0
06/02:30am 14.8 12.6 10.8 77 2.1 WNW 13 17 7 9 1015.5 1015.5 0.0
06/02:00am 14.7 11.3 10.7 77 2.1 WNW 19 24 10 13 1015.6 1015.6 0.0
06/01:30am 14.7 12.2 11.1 79 1.9 WNW 15 20 8 11 1015.8 1015.7 0.0
06/01:00am 14.8 12.7 11.0 78 2.0 NW 13 20 7 11 1016.0 1015.9 0.0
06/12:30am 14.8 12.8 10.2 74 2.4 NW 11 13 6 7 1016.0 1015.9 0.0
06/12:00am 14.8 11.1 10.2 74 2.4 WSW 20 30 11 16 1015.9 1015.8 0.0
 
Date/Time
EDT
Temp
°C
App
Temp
°C
Dew
Point
°C
Rel
Hum
%
Delta-T
°C
Wind Press
QNH
hPa
Press
MSL
hPa
Rain since
9am
mm
Dir  Spd
km/h
Gust
km/h
Spd
kts
Gust
kts
05/11:30pm 15.0 11.9 10.4 74 2.4 W 17 26 9 14 1015.9 1015.8 0.0
05/11:00pm 14.6 13.2 10.8 78 2.0 NW 9 17 5 9 1015.9 1015.8 0.0
05/10:30pm 14.7 13.2 10.7 77 2.1 NW 9 13 5 7 1016.2 1016.1 0.0
05/10:00pm 14.8 11.2 10.6 76 2.2 W 20 30 11 16 1016.3 1016.2 0.0
05/09:30pm 15.4 11.9 10.8 74 2.4 WSW 20 28 11 15 1016.0 1015.9 0.0
05/09:00pm 15.4 12.7 10.4 72 2.6 WNW 15 20 8 11 1015.9 1015.8 0.0
05/08:30pm 15.4 13.0 10.0 70 2.8 NW 13 20 7 11 1015.6 1015.6 0.0
05/08:00pm 15.5 13.0 9.8 69 3.0 NW 13 17 7 9 1015.5 1015.5 0.0
05/07:30pm 15.7 14.0 9.8 68 3.1 NW 9 15 5 8 1015.3 1015.3 0.0
05/07:00pm 15.7 13.5 9.4 66 3.3 WNW 11 15 6 8 1015.2 1015.2 0.0
05/06:30pm 16.0 13.8 9.4 65 3.4 WNW 11 19 6 10 1015.1 1015.1 0.0
05/06:00pm 15.9 13.0 9.8 67 3.2 WNW 15 19 8 10 1015.1 1015.1 0.0
05/05:30pm 16.1 13.7 10.2 68 3.1 WNW 13 20 7 11 1015.3 1015.3 0.0
05/05:00pm 16.5 13.8 10.4 67 3.2 W 15 20 8 11 1015.2 1015.2 0.0
05/04:30pm 16.8 14.6 10.9 68 3.2 W 13 20 7 11 1015.3 1015.3 0.0
05/04:00pm 16.6 14.6 10.2 66 3.4 W 11 19 6 10 1015.3 1015.3 0.0
05/03:30pm 17.9 16.3 11.5 66 3.5 W 11 15 6 8 1015.3 1015.3 0.0
05/03:00pm 17.6 15.6 11.4 67 3.4 WSW 13 19 7 10 1015.4 1015.4 0.0
05/02:30pm 17.2 15.8 10.8 66 3.4 WSW 9 17 5 9 1015.3 1015.3 0.0
05/02:00pm 17.3 15.5 10.7 65 3.5 WSW 11 15 6 8 1015.3 1015.3 0.0
05/01:30pm 16.9 14.9 10.1 64 3.6 WSW 11 17 6 9 1015.2 1015.2 0.0
05/01:00pm 16.6 14.9 9.8 64 3.6 W 9 15 5 8 1015.2 1015.2 0.0
05/12:30pm 17.5 15.5 10.1 62 3.9 WSW 11 15 6 8 1015.0 1015.0 0.0
05/12:00pm 17.2 14.7 9.6 61 4.0 WSW 13 20 7 11 1014.9 1014.9 0.0
05/11:30am 17.6 14.0 9.8 60 4.1 WSW 19 24 10 13 1014.9 1014.9 0.0
05/11:00am 16.7 14.3 9.9 64 3.6 WSW 13 19 7 10 1014.8 1014.8 0.0
05/10:30am 18.5 17.2 11.3 63 3.9 W 9 13 5 7 1014.4 1014.4 0.0
05/10:00am 16.2 13.3 9.6 65 3.4 WSW 15 17 8 9 1014.2 1014.2 0.0
05/09:30am 15.3 11.3 9.0 66 3.2 WSW 20 24 11 13 1013.8 1013.8 0.0
05/09:00am 15.2 11.4 9.8 70 2.8 SW 20 26 11 14 1013.5 1013.5 0.2
05/08:30am 15.1 10.7 10.3 73 2.5 SW 24 30 13 16 1013.0 1013.0 0.2
05/08:00am 15.0 10.8 9.8 71 2.7 SW 22 28 12 15 1012.5 1012.5 0.2
05/07:30am 14.5 10.3 9.9 74 2.4 SW 22 28 12 15 1012.2 1012.2 0.2
05/07:00am 14.4 10.4 10.6 78 2.0 SSW 22 28 12 15 1011.8 1011.8 0.2
05/06:30am 14.4 12.1 10.6 78 2.0 SW 13 17 7 9 1011.5 1011.5 0.2
05/06:00am 14.7 9.9 10.3 75 2.3 SW 26 32 14 17 1010.9 1010.9 0.2
05/05:30am 14.8 10.6 9.8 72 2.6 SSW 22 28 12 15 1010.5 1010.5 0.2
05/05:00am 14.7 12.0 10.5 76 2.2 SSW 15 22 8 12 1010.2 1010.2 0.2
05/04:30am 14.9 10.0 10.1 73 2.5 SSW 26 35 14 19 1010.0 1010.0 0.2
05/04:00am 14.8 10.8 10.4 75 2.3 SSW 22 28 12 15 1010.0 1010.0 0.2
05/03:30am 14.9 8.9 10.1 73 2.5 SW 32 37 17 20 1009.8 1009.8 0.2
05/03:00am 14.8 8.2 10.0 73 2.5 SW 35 39 19 21 1009.6 1009.6 0.2
05/02:30am 14.8 8.7 10.4 75 2.3 SW 33 43 18 23 1009.5 1009.5 0.2
05/02:00am 14.7 9.2 10.5 76 2.2 SSW 30 37 16 20 1009.5 1009.5 0.2
05/01:30am 14.8 8.7 10.4 75 2.3 SW 33 41 18 22 1009.2 1009.2 0.2
05/01:00am 14.6 7.4 10.4 76 2.2 SW 39 48 21 26 1008.9 1008.9 0.2
05/12:30am 14.9 8.1 10.7 76 2.2 SW 37 44 20 24 1008.9 1008.9 0.2
05/12:00am 14.8 7.7 9.6 71 2.7 SSW 37 43 20 23 1008.8 1008.8 0.2
 
Date/Time
EDT
Temp
°C
App
Temp
°C
Dew
Point
°C
Rel
Hum
%
Delta-T
°C
Wind Press
QNH
hPa
Press
MSL
hPa
Rain since
9am
mm
Dir  Spd
km/h
Gust
km/h
Spd
kts
Gust
kts
04/11:30pm 14.8 7.7 9.6 71 2.7 SSW 37 44 20 24 1008.8 1008.8 0.2
04/11:00pm 14.6 6.7 9.2 70 2.8 SSW 41 50 22 27 1008.6 1008.6 0.2
04/10:30pm 14.8 6.5 9.4 70 2.8 SSW 43 48 23 26 1008.3 1008.3 0.2
04/10:00pm 15.0 6.8 9.6 70 2.8 SW 43 50 23 27 1008.0 1008.0 0.2
04/09:30pm 15.1 6.8 9.9 71 2.7 SSW 44 54 24 29 1007.5 1007.5 0.2
04/09:00pm 14.8 5.7 9.8 72 2.6 SW 48 56 26 30 1006.8 1006.8 0.2
04/08:30pm 14.8 6.1 9.8 72 2.6 SSW 46 54 25 29 1006.4 1006.4 0.2
04/08:00pm 14.8 5.6 9.6 71 2.7 SSW 48 56 26 30 1005.9 1005.9 0.2
04/07:30pm 15.2 6.1 9.8 70 2.8 SSW 48 56 26 30 1005.4 1005.4 0.2
04/07:00pm 15.3 6.6 10.1 71 2.7 SSW 46 54 25 29 1005.0 1005.0 0.2
04/06:30pm 15.6 6.2 10.2 70 2.8 SSW 50 57 27 31 1004.4 1004.4 0.2
04/06:00pm 15.4 6.3 10.0 70 2.8 SSW 48 56 26 30 1004.0 1004.0 0.2
04/05:30pm 15.7 6.8 10.5 71 2.7 SSW 48 56 26 30 1003.6 1003.6 0.2
04/05:00pm 15.4 6.1 10.6 73 2.5 SSW 50 61 27 33 1003.4 1003.4 0.2
04/04:30pm 15.6 6.5 11.4 76 2.3 SSW 50 57 27 31 1003.0 1003.0 0.2
04/04:00pm 15.1 5.9 10.9 76 2.2 SSW 50 57 27 31 1002.7 1002.7 0.2
04/03:30pm 15.0 5.4 10.8 76 2.2 SSW 52 61 28 33 1002.4 1002.4 0.2
04/03:00pm 15.1 5.6 11.3 78 2.0 SSW 52 63 28 34 1001.9 1001.9 0.2
04/02:30pm 15.1 5.7 11.5 79 1.9 SSW 52 61 28 33 1001.8 1001.8 0.2
04/02:00pm 14.9 5.2 11.7 81 1.7 SSW 54 65 29 35 1001.3 1001.3 0.2
04/01:30pm 14.3 4.2 11.8 85 1.3 SW 56 63 30 34 1000.9 1000.9 0.2
04/01:00pm 14.1 4.1 12.1 88 1.1 SW 56 63 30 34 1000.5 1000.5 0.2
04/12:30pm 14.1 5.1 12.7 91 0.8 SW 52 65 28 35 1000.2 1000.2 0.2
04/12:00pm 14.0 5.0 12.9 93 0.6 SW 52 61 28 33 999.7 999.7 0.2
04/11:30am 13.9 5.3 13.0 94 0.5 SSW 50 65 27 35 999.4 999.4 0.2
04/11:00am 14.0 5.5 13.2 95 0.4 SSW 50 59 27 32 999.1 999.1 0.2
04/10:30am 14.1 5.7 13.5 96 0.3 SSW 50 57 27 31 998.9 998.9 0.2
04/10:00am 14.0 5.6 13.5 97 0.3 SSW 50 57 27 31 998.5 998.5 0.2
04/09:30am 13.8 5.0 13.5 98 0.2 SSW 52 61 28 33 998.2 998.2 0.2
04/09:00am 13.5 4.6 13.2 98 0.2 SSW 52 65 28 35 997.9 997.9 15.2
04/08:30am 13.6 5.5 13.3 98 0.2 SSW 48 59 26 32 997.4 997.4 15.0
04/08:00am 13.6 4.8 13.3 98 0.2 SSW 52 63 28 34 997.0 997.0 14.6
04/07:30am 13.6 5.1 13.3 98 0.2 SSW 50 59 27 32 996.6 996.6 13.8
04/07:00am 13.3 4.3 12.8 97 0.3 SSW 52 63 28 34 996.1 996.1 13.6
04/06:30am 13.6 5.4 13.0 96 0.3 SSW 48 57 26 31 995.8 995.8 13.0
04/06:20am 13.6 7.1 12.8 95 0.4 SSW 39 57 21 31 995.5 995.5 13.0
04/06:00am 13.8 7.3 12.9 94 0.5 SSW 39 43 21 23 995.4 995.4 12.8
04/05:30am 13.7 6.8 12.8 94 0.5 SSW 41 48 22 26 995.1 995.1 12.6
04/05:00am 13.4 6.4 12.6 95 0.4 SSW 41 46 22 25 994.7 994.7 12.4
04/04:30am 13.6 7.5 13.1 97 0.3 SSW 37 44 20 24 994.7 994.7 12.4
04/04:00am 13.2 5.9 12.7 97 0.3 SSW 43 48 23 26 994.4 994.4 12.2
04/03:30am 13.3 7.9 12.7 96 0.3 SW 33 50 18 27 994.4 994.4 12.0
04/03:00am 13.3 7.9 12.7 96 0.3 SSW 33 44 18 24 994.4 994.4 11.2
04/02:30am 13.3 9.9 12.5 95 0.4 SSW 22 28 12 15 994.4 994.4 10.2
04/02:00am 13.4 10.4 12.5 94 0.5 W 20 33 11 18 994.4 994.4 8.8
04/01:30am 13.0 8.9 11.6 91 0.7 NW 24 32 13 17 994.5 994.5 5.2
04/01:00am 12.9 9.7 11.3 90 0.9 NW 19 24 10 13 994.6 994.6 4.4
04/12:30am 13.2 10.1 11.6 90 0.9 WNW 19 26 10 14 994.8 994.8 3.8
04/12:00am 12.2 8.2 10.4 89 0.9 W 22 35 12 19 994.9 994.9 3.2
 
Date/Time
EDT
Temp
°C
App
Temp
°C
Dew
Point
°C
Rel
Hum
%
Delta-T
°C
Wind Press
QNH
hPa
Press
MSL
hPa
Rain since
9am
mm
Dir  Spd
km/h
Gust
km/h
Spd
kts
Gust
kts
03/11:30pm 12.6 7.9 10.8 89 0.9 WSW 26 35 14 19 994.9 994.9 2.4
03/11:00pm 13.5 7.7 10.7 83 1.5 WSW 32 41 17 22 994.7 994.7 0.8
03/10:30pm 14.9 8.0 10.3 74 2.4 WSW 37 48 20 26 994.4 994.4 0.2
03/10:00pm 15.3 10.3 9.7 69 2.9 W 26 35 14 19 994.1 994.1 0.2
03/09:30pm 15.2 9.9 9.8 70 2.8 WSW 28 37 15 20 993.9 993.9 0.2
03/09:00pm 15.3 10.8 9.9 70 2.8 WSW 24 33 13 18 993.2 993.2 0.2
03/08:30pm 15.2 11.4 9.8 70 2.8 W 20 30 11 16 993.1 993.1 0.2
03/08:00pm 15.2 11.2 9.1 67 3.2 WSW 20 26 11 14 992.8 992.8 0.2
03/07:30pm 15.2 11.3 8.7 65 3.3 WSW 19 24 10 13 992.5 992.5 0.2
03/07:00pm 15.6 11.6 8.4 62 3.7 SW 19 24 10 13 992.3 992.3 0.2
03/06:30pm 16.4 12.4 8.1 58 4.2 SW 19 22 10 12 991.9 991.9 0.2
03/06:00pm 16.8 12.9 9.5 62 3.8 SW 20 24 11 13 991.6 991.6 0.2
03/05:30pm 17.9 14.0 9.3 57 4.5 SW 20 24 11 13 991.4 991.4 0.2
03/05:00pm 17.8 12.6 8.9 56 4.7 SW 26 32 14 17 991.1 991.1 0.2
03/04:30pm 18.3 14.0 10.7 61 4.1 SW 24 28 13 15 990.8 990.8 0.2
03/04:00pm 18.1 13.6 10.2 60 4.3 SSW 24 28 13 15 990.5 990.5 0.2
03/03:30pm 18.0 13.3 10.6 62 4.0 SSW 26 32 14 17 990.3 990.3 0.2
03/03:00pm 17.3 12.3 9.5 60 4.1 SSW 26 32 14 17 990.1 990.1 0.2
03/02:30pm 17.4 12.7 9.1 58 4.3 SSW 24 30 13 16 989.7 989.7 0.2
03/02:00pm 17.4 13.0 10.3 63 3.8 SSW 24 30 13 16 989.5 989.5 0.2
03/01:30pm 17.4 13.6 11.0 66 3.4 SSW 22 28 12 15 989.6 989.6 0.2
03/01:00pm 17.0 13.7 10.8 67 3.4 SSW 19 24 10 13 989.6 989.6 0.2
03/12:30pm 16.7 13.8 11.0 69 3.1 SSW 17 20 9 11 989.3 989.3 0.2
03/12:00pm 16.1 13.6 11.1 72 2.7 SW 15 19 8 10 989.0 989.0 0.2
03/11:30am 14.9 12.8 9.9 72 2.6 WSW 11 15 6 8 988.8 988.8 0.2
03/11:00am 14.7 13.6 9.9 73 2.5 SW 6 9 3 5 988.3 988.3 0.0
03/10:30am 14.6 13.5 9.8 73 2.5 NNE 6 9 3 5 987.8 987.8 0.0
03/10:00am 13.6 12.8 9.5 76 2.1 NNE 4 7 2 4 987.6 987.6 0.0
03/09:30am 13.0 11.2 9.4 79 1.8 NNE 9 11 5 6 987.1 987.1 0.0
03/09:00am 12.4 11.0 9.6 83 1.4 NE 7 13 4 7 986.7 986.7 28.6
03/08:30am - - - - - ENE 11 15 6 8 986.3 986.3 28.6

Other formats

Comma delimited format used in spreadsheet applications
http://www.bom.gov.au/fwo/IDT60801/IDT60801.94974.axf

JavaScript Object Notation format (JSON) in row-major order
http://www.bom.gov.au/fwo/IDT60801/IDT60801.94974.json

Data quality

Most of these data are generated automatically and are frequently updated. Quality checks on data are not normally performed. It is possible for incorrect values to appear. Refer to information at About Latest Weather Observations and please check the disclaimer before using these data.